Time;durP1;ratioP1;P1;durP2;ratioP2;P2;SDS_P1;SDS_P2;PMS_P1;PMS_P2;Temp;Humidity;BMP_temperature;BMP_pressure;BME280_temperature;BME280_humidity;BME280_pressure;Samples;Min_cycle;Max_cycle;Signal;HPM_P1;HPM_P2
2023/10/20 04:49:14;;;;;;;0.05;0.05;;;15.10;89.30;;;;;;4868082;29;20103;-78
2023/10/20 04:54:44;;;;;;;0.10;0.10;;;15.10;89.40;;;;;;4863501;29;20481;-77
2023/10/20 05:00:00;;;;;;;0.00;0.00;;;15.00;89.10;;;;;;4866973;29;20035;-79
2023/10/20 05:02:34;;;;;;;0.10;0.10;;;15.00;89.50;;;;;;4878790;29;20029;-78
2023/10/20 05:05:06;;;;;;;0.10;0.10;;;15.00;89.30;;;;;;4881354;29;20060;-81
2023/10/20 05:07:32;;;;;;;0.10;0.10;;;15.00;89.40;;;;;;4883582;29;20489;-77
2023/10/20 05:09:59;;;;;;;0.10;0.10;;;15.00;89.40;;;;;;4885185;29;20032;-79
2023/10/20 05:12:25;;;;;;;0.10;0.10;;;15.10;89.40;;;;;;4880355;29;20329;-76
2023/10/20 05:14:50;;;;;;;0.00;0.00;;;15.00;89.30;;;;;;4868521;29;20038;-76
2023/10/20 05:17:18;;;;;;;0.10;0.10;;;15.10;89.20;;;;;;4866217;29;20158;-77
2023/10/20 05:19:44;;;;;;;0.10;0.10;;;15.00;89.30;;;;;;4866117;29;20022;-76
2023/10/20 05:22:09;;;;;;;0.00;0.00;;;15.00;89.20;;;;;;4868398;29;20406;-77
2023/10/20 05:24:35;;;;;;;0.00;0.00;;;15.10;89.30;;;;;;4884622;29;20021;-77
2023/10/20 05:27:01;;;;;;;0.10;0.10;;;15.00;89.30;;;;;;4867303;29;20066;-77
2023/10/20 05:29:26;;;;;;;0.10;0.10;;;15.00;89.40;;;;;;4876446;29;20029;-77
2023/10/20 05:31:52;;;;;;;0.10;0.10;;;15.00;89.50;;;;;;4884409;29;20061;-78
2023/10/20 05:34:18;;;;;;;0.08;0.08;;;15.00;89.40;;;;;;4883854;29;20033;-78
2023/10/20 05:36:44;;;;;;;0.00;0.00;;;15.10;89.40;;;;;;4875543;29;20044;-78
2023/10/20 05:39:13;;;;;;;0.20;0.20;;;15.10;89.30;;;;;;4861900;29;20102;-78
2023/10/20 05:41:39;;;;;;;0.00;0.00;;;15.10;89.30;;;;;;4884269;29;20033;-78
2023/10/20 05:44:06;;;;;;;0.10;0.10;;;15.10;89.40;;;;;;4881503;29;20033;-79
2023/10/20 05:46:32;;;;;;;0.10;0.10;;;15.20;89.20;;;;;;4881827;29;20029;-79
2023/10/20 05:48:57;;;;;;;0.10;0.10;;;15.10;89.10;;;;;;4883428;29;20409;-79
2023/10/20 05:51:23;;;;;;;0.10;0.10;;;15.00;89.00;;;;;;4884864;29;20041;-79
2023/10/20 05:53:49;;;;;;;0.00;0.00;;;15.00;89.30;;;;;;4884725;29;20029;-79
2023/10/20 05:56:14;;;;;;;0.10;0.10;;;15.00;89.30;;;;;;4872932;29;20088;-79
2023/10/20 05:58:40;;;;;;;0.03;0.03;;;15.10;89.30;;;;;;4865789;29;20108;-79
2023/10/20 06:01:07;;;;;;;0.10;0.10;;;15.10;89.20;;;;;;4864395;29;20030;-79
2023/10/20 06:03:33;;;;;;;0.10;0.10;;;15.10;89.30;;;;;;4871757;29;20116;-79
2023/10/20 06:06:00;;;;;;;0.00;0.00;;;15.00;89.20;;;;;;4884602;29;20028;-79
2023/10/20 06:08:28;;;;;;;0.10;0.10;;;15.00;89.40;;;;;;4873381;29;20367;-79
2023/10/20 06:10:59;;;;;;;0.10;0.10;;;15.00;89.50;;;;;;4849262;29;20039;-79
2023/10/20 06:13:24;;;;;;;0.10;0.10;;;15.00;89.50;;;;;;4848969;29;20033;-79
2023/10/20 06:15:50;;;;;;;0.10;0.10;;;15.10;89.30;;;;;;4865681;29;20406;-79
2023/10/20 06:18:17;;;;;;;0.10;0.10;;;15.10;89.10;;;;;;4865126;29;20033;-79
2023/10/20 06:20:43;;;;;;;0.10;0.10;;;15.00;89.20;;;;;;4864707;29;20029;-79
2023/10/20 06:23:09;;;;;;;0.10;0.10;;;15.00;89.40;;;;;;4865354;29;20391;-79
2023/10/20 06:25:35;;;;;;;0.10;0.10;;;15.00;89.40;;;;;;4865590;29;20030;-79
2023/10/20 06:28:01;;;;;;;0.00;0.00;;;15.00;89.40;;;;;;4864379;29;20041;-79
2023/10/20 06:30:27;;;;;;;0.10;0.10;;;15.10;89.40;;;;;;4878971;29;20063;-79
2023/10/20 06:35:48;;;;;;;0.10;0.10;;;15.10;89.20;;;;;;4875119;29;20032;-79
2023/10/20 06:38:16;;;;;;;0.10;0.10;;;15.00;89.30;;;;;;4867074;29;20056;-79
2023/10/20 06:40:42;;;;;;;0.10;0.10;;;15.10;89.30;;;;;;4858017;29;20029;-79
2023/10/20 06:43:08;;;;;;;0.10;0.10;;;15.00;89.10;;;;;;4864950;29;20037;-79
2023/10/20 06:45:35;;;;;;;0.10;0.10;;;15.00;89.30;;;;;;4863936;29;20056;-79
2023/10/20 06:48:01;;;;;;;0.10;0.10;;;15.10;89.40;;;;;;4864889;29;20022;-80
2023/10/20 06:50:27;;;;;;;0.20;0.20;;;15.00;89.30;;;;;;4865085;29;20045;-79
2023/10/20 06:52:53;;;;;;;0.47;0.32;;;15.10;89.30;;;;;;4867244;29;20154;-79
2023/10/20 06:55:19;;;;;;;0.10;0.10;;;15.00;88.80;;;;;;4864857;29;20033;-79
2023/10/20 06:57:45;;;;;;;0.10;0.10;;;15.00;89.40;;;;;;4849311;29;20026;-79
2023/10/20 07:00:17;;;;;;;0.32;0.20;;;14.90;89.40;;;;;;4880282;29;20545;-79
2023/10/20 07:02:43;;;;;;;0.10;0.10;;;14.90;89.40;;;;;;4874282;29;20036;-79
2023/10/20 07:05:10;;;;;;;0.20;0.20;;;14.90;89.50;;;;;;4883760;29;20021;-79
2023/10/20 07:07:35;;;;;;;0.20;0.20;;;14.90;89.20;;;;;;4866019;29;20398;-79
2023/10/20 07:10:02;;;;;;;0.00;0.00;;;14.90;89.50;;;;;;4883380;29;20036;-79
2023/10/20 07:12:28;;;;;;;0.13;0.10;;;15.00;89.60;;;;;;4866650;29;20061;-79
2023/10/20 07:14:54;;;;;;;0.10;0.10;;;15.00;89.20;;;;;;4871736;29;20494;-79
2023/10/20 07:17:20;;;;;;;0.20;0.20;;;15.00;89.30;;;;;;4864446;29;20060;-79
2023/10/20 07:19:46;;;;;;;0.10;0.10;;;14.90;89.20;;;;;;4864368;29;20456;-79
2023/10/20 07:22:12;;;;;;;0.20;0.10;;;14.90;89.20;;;;;;4864936;29;20511;-79
2023/10/20 07:24:39;;;;;;;0.10;0.10;;;14.80;89.10;;;;;;4863183;29;20401;-79
2023/10/20 07:27:05;;;;;;;0.10;0.10;;;14.80;89.00;;;;;;4863173;29;20041;-79
2023/10/20 07:29:31;;;;;;;0.30;0.25;;;14.80;89.50;;;;;;4863260;29;20026;-79
2023/10/20 07:31:58;;;;;;;0.10;0.10;;;14.80;89.40;;;;;;4864107;29;20053;-79
2023/10/20 07:34:25;;;;;;;0.10;0.10;;;14.80;89.50;;;;;;4875084;29;20508;-79
2023/10/20 07:36:51;;;;;;;0.00;0.00;;;14.80;89.20;;;;;;4866482;29;20077;-79
2023/10/20 07:39:16;;;;;;;0.10;0.10;;;14.80;89.30;;;;;;4864538;29;20081;-79
2023/10/20 07:41:43;;;;;;;0.10;0.10;;;14.70;89.20;;;;;;4894620;29;20065;-79
2023/10/20 07:44:11;;;;;;;0.00;0.00;;;14.80;89.50;;;;;;4866583;29;20121;-79
2023/10/20 07:46:37;;;;;;;0.10;0.10;;;14.80;89.50;;;;;;4866713;29;20085;-79
2023/10/20 07:49:04;;;;;;;0.00;0.00;;;14.90;89.40;;;;;;4862891;29;20045;-79
2023/10/20 07:51:30;;;;;;;0.10;0.10;;;14.90;89.20;;;;;;4864438;29;20037;-79
2023/10/20 07:53:55;;;;;;;0.10;0.10;;;15.00;89.10;;;;;;4864291;29;20036;-79
2023/10/20 07:56:21;;;;;;;0.10;0.10;;;15.00;89.30;;;;;;4848193;29;20037;-79
2023/10/20 07:58:47;;;;;;;0.10;0.10;;;15.00;89.20;;;;;;4864309;29;20037;-79
2023/10/20 08:01:14;;;;;;;0.10;0.10;;;15.10;89.20;;;;;;4847519;29;20089;-79
2023/10/20 08:03:42;;;;;;;0.10;0.10;;;15.00;89.00;;;;;;4847576;29;20566;-80
2023/10/20 08:06:07;;;;;;;0.00;0.00;;;15.00;89.00;;;;;;4849640;29;20078;-79
2023/10/20 08:08:33;;;;;;;0.10;0.10;;;15.00;89.10;;;;;;4851847;29;20029;-80
2023/10/20 08:10:59;;;;;;;0.10;0.10;;;15.00;89.00;;;;;;4867962;29;20078;-79
2023/10/20 08:13:25;;;;;;;0.10;0.10;;;15.10;89.00;;;;;;4867756;29;20049;-80
2023/10/20 08:15:50;;;;;;;0.10;0.10;;;15.10;88.70;;;;;;4866365;29;20049;-79
2023/10/20 08:18:16;;;;;;;0.10;0.10;;;15.10;89.10;;;;;;4866610;29;20462;-79
2023/10/20 08:20:42;;;;;;;0.10;0.10;;;15.20;89.00;;;;;;4865936;29;20073;-79
2023/10/20 08:23:08;;;;;;;0.10;0.10;;;15.20;88.80;;;;;;4850872;29;20034;-79
2023/10/20 08:25:37;;;;;;;0.10;0.10;;;15.30;88.90;;;;;;4866216;29;20029;-79
2023/10/20 08:28:03;;;;;;;0.10;0.10;;;15.30;88.80;;;;;;4879112;29;20069;-79
2023/10/20 08:30:29;;;;;;;0.10;0.10;;;15.40;88.70;;;;;;4869504;29;20444;-80
2023/10/20 08:32:55;;;;;;;0.10;0.10;;;15.40;88.30;;;;;;4869254;29;20025;-78
2023/10/20 08:35:22;;;;;;;0.10;0.10;;;15.40;88.60;;;;;;4873265;29;20040;-78
2023/10/20 08:37:48;;;;;;;0.10;0.10;;;15.50;88.50;;;;;;4867185;29;20025;-78
2023/10/20 08:40:14;;;;;;;0.10;0.10;;;15.50;88.40;;;;;;4880068;29;20034;-78
2023/10/20 08:42:40;;;;;;;0.10;0.10;;;15.50;88.60;;;;;;4867551;29;20058;-78
2023/10/20 08:45:12;;;;;;;0.10;0.10;;;15.50;88.50;;;;;;4860759;29;20068;-78
2023/10/20 08:47:41;;;;;;;0.10;0.10;;;15.40;88.40;;;;;;4850321;29;20465;-79
2023/10/20 08:50:09;;;;;;;0.10;0.10;;;15.40;88.30;;;;;;4865831;29;20025;-78
2023/10/20 08:52:36;;;;;;;0.10;0.10;;;15.40;88.40;;;;;;4884057;29;20508;-78
2023/10/20 08:55:04;;;;;;;0.10;0.10;;;15.50;88.40;;;;;;4864697;29;20030;-78
2023/10/20 08:57:29;;;;;;;0.20;0.20;;;15.50;88.20;;;;;;4852699;29;20033;-78
2023/10/20 08:59:55;;;;;;;0.03;0.03;;;15.60;88.20;;;;;;4866733;29;20131;-78
2023/10/20 09:02:21;;;;;;;0.17;0.10;;;15.60;88.10;;;;;;4850104;29;20057;-79
2023/10/20 09:04:51;;;;;;;0.10;0.10;;;15.70;87.90;;;;;;4870360;29;20037;-78
2023/10/20 09:07:17;;;;;;;0.03;0.03;;;15.80;88.00;;;;;;4866849;29;20033;-78
2023/10/20 09:09:43;;;;;;;0.10;0.10;;;15.80;87.70;;;;;;4866902;29;20030;-78
2023/10/20 09:12:08;;;;;;;0.10;0.10;;;15.80;87.30;;;;;;4867194;29;20044;-79
2023/10/20 09:14:39;;;;;;;0.10;0.10;;;15.80;87.70;;;;;;4866968;29;20030;-78
2023/10/20 09:17:05;;;;;;;0.10;0.10;;;15.90;87.60;;;;;;4866248;29;20129;-78
2023/10/20 09:19:30;;;;;;;0.10;0.10;;;15.90;87.50;;;;;;4864260;29;20056;-78
2023/10/20 09:21:57;;;;;;;0.10;0.10;;;16.00;87.30;;;;;;4866693;29;20029;-78
2023/10/20 09:24:29;;;;;;;0.10;0.10;;;16.00;87.50;;;;;;4865778;29;20021;-78
2023/10/20 09:26:55;;;;;;;0.10;0.10;;;15.90;87.40;;;;;;4866513;29;20036;-78
2023/10/20 09:29:22;;;;;;;0.10;0.10;;;15.90;87.40;;;;;;4866494;29;20547;-78
2023/10/20 09:31:49;;;;;;;0.00;0.00;;;15.80;87.20;;;;;;4865017;29;20056;-78
2023/10/20 09:34:15;;;;;;;0.10;0.10;;;15.80;87.40;;;;;;4858359;29;20176;-78
2023/10/20 09:36:46;;;;;;;0.10;0.10;;;15.80;87.30;;;;;;4873892;29;20033;-78
2023/10/20 09:39:20;;;;;;;0.10;0.10;;;15.80;87.80;;;;;;4868411;29;20508;-78
2023/10/20 09:41:50;;;;;;;0.10;0.10;;;15.80;87.60;;;;;;4867127;29;20472;-78
2023/10/20 09:44:32;;;;;;;0.10;0.10;;;15.80;87.40;;;;;;4866095;29;20516;-78
2023/10/20 09:47:21;;;;;;;0.10;0.10;;;15.80;87.80;;;;;;4865963;29;20033;-78
2023/10/20 09:49:48;;;;;;;0.10;0.10;;;15.90;87.50;;;;;;4866137;29;20490;-78
2023/10/20 09:52:15;;;;;;;0.10;0.10;;;15.90;87.60;;;;;;4866402;29;20065;-78
2023/10/20 09:54:41;;;;;;;0.10;0.10;;;16.00;87.40;;;;;;4864681;29;20030;-78
2023/10/20 09:57:08;;;;;;;0.10;0.10;;;16.10;87.20;;;;;;4865861;29;20061;-78
2023/10/20 09:59:37;;;;;;;0.10;0.10;;;16.10;86.70;;;;;;4864926;29;20379;-78
2023/10/20 10:02:03;;;;;;;0.10;0.10;;;16.20;87.20;;;;;;4849274;29;20040;-78
2023/10/20 10:04:33;;;;;;;0.00;0.00;;;16.20;86.80;;;;;;4878579;29;20413;-78
2023/10/20 10:07:06;;;;;;;0.10;0.10;;;16.20;86.80;;;;;;4867452;29;20029;-78
2023/10/20 10:09:43;;;;;;;;;;;16.30;87.00;;;;;;4874453;29;20383;-78
2023/10/20 10:12:17;;;;;;;0.20;0.20;;;16.30;87.10;;;;;;4864715;29;19947;-78
2023/10/20 10:14:55;;;;;;;0.10;0.10;;;16.30;86.80;;;;;;4865594;29;20521;-78
2023/10/20 10:17:22;;;;;;;0.10;0.10;;;16.30;86.50;;;;;;4867609;29;20044;-78
2023/10/20 10:19:51;;;;;;;0.10;0.10;;;16.30;86.70;;;;;;4862980;29;20037;-78
2023/10/20 10:22:17;;;;;;;0.10;0.10;;;16.50;86.80;;;;;;4883195;29;20029;-79
2023/10/20 10:24:54;;;;;;;0.10;0.10;;;16.50;86.90;;;;;;4883852;29;20037;-79
2023/10/20 10:27:22;;;;;;;0.10;0.10;;;16.50;86.30;;;;;;4882687;29;20029;-78
2023/10/20 10:29:53;;;;;;;0.10;0.10;;;16.50;86.10;;;;;;4883657;29;20105;-78
2023/10/20 10:32:20;;;;;;;0.10;0.10;;;16.50;86.50;;;;;;4878337;29;20057;-79
2023/10/20 10:34:53;;;;;;;0.10;0.10;;;16.60;86.60;;;;;;4883650;29;20127;-78
2023/10/20 10:37:35;;;;;;;0.10;0.10;;;16.60;86.40;;;;;;4882620;29;20088;-78
2023/10/20 10:40:09;;;;;;;0.10;0.10;;;16.80;86.20;;;;;;4882024;29;20033;-78
2023/10/20 10:42:46;;;;;;;0.10;0.10;;;16.80;86.10;;;;;;4882622;29;20105;-78
2023/10/20 10:45:21;;;;;;;0.10;0.10;;;16.90;85.70;;;;;;4883177;29;20045;-78
2023/10/20 10:47:50;;;;;;;0.10;0.10;;;16.90;85.80;;;;;;4872917;29;20026;-79
2023/10/20 10:50:16;;;;;;;0.10;0.10;;;16.90;85.90;;;;;;4864947;29;20093;-79
2023/10/20 10:52:43;;;;;;;0.10;0.10;;;16.90;85.60;;;;;;4864886;29;20030;-78
2023/10/20 10:55:13;;;;;;;0.10;0.10;;;16.90;86.00;;;;;;4864908;29;20050;-78
2023/10/20 10:57:44;;;;;;;0.10;0.10;;;17.00;85.90;;;;;;4865310;29;20104;-78
2023/10/20 11:00:15;;;;;;;0.10;0.10;;;17.00;85.90;;;;;;4864952;29;20061;-78
2023/10/20 11:02:42;;;;;;;0.10;0.10;;;17.10;85.80;;;;;;4878749;29;20045;-78
2023/10/20 11:05:08;;;;;;;0.10;0.10;;;17.00;85.40;;;;;;4879491;29;20029;-79
2023/10/20 11:07:34;;;;;;;0.10;0.10;;;17.10;85.30;;;;;;4880209;29;20398;-78
2023/10/20 11:10:01;;;;;;;0.10;0.10;;;17.20;85.20;;;;;;4877894;29;20034;-78
2023/10/20 11:12:27;;;;;;;0.10;0.10;;;17.20;85.10;;;;;;4864608;29;20045;-79
2023/10/20 11:14:57;;;;;;;0.10;0.10;;;17.20;84.30;;;;;;4863684;29;20447;-78
2023/10/20 11:17:22;;;;;;;0.10;0.10;;;17.20;85.20;;;;;;4863220;29;20026;-78
2023/10/20 11:19:48;;;;;;;0.10;0.10;;;17.20;85.20;;;;;;4866673;29;20554;-79
2023/10/20 11:22:17;;;;;;;0.10;0.10;;;17.10;85.30;;;;;;4864622;29;20022;-78
2023/10/20 11:24:54;;;;;;;0.00;0.00;;;17.10;85.40;;;;;;4864748;29;20033;-78
2023/10/20 11:27:20;;;;;;;0.10;0.10;;;17.00;85.50;;;;;;4868171;29;20029;-79
2023/10/20 11:29:46;;;;;;;0.00;0.00;;;17.00;85.50;;;;;;4864330;29;20474;-79
2023/10/20 11:32:14;;;;;;;0.10;0.10;;;17.00;85.70;;;;;;4878610;29;20080;-78
2023/10/20 11:34:40;;;;;;;0.00;0.00;;;17.00;85.70;;;;;;4876182;29;20654;-76
2023/10/20 11:37:07;;;;;;;0.10;0.10;;;17.00;85.40;;;;;;4881949;29;20029;-76
2023/10/20 11:39:36;;;;;;;0.10;0.10;;;17.00;85.50;;;;;;4878408;29;20041;-76
2023/10/20 11:42:03;;;;;;;0.10;0.10;;;17.00;85.70;;;;;;4880879;29;20033;-76
2023/10/20 11:44:28;;;;;;;0.10;0.10;;;17.10;85.70;;;;;;4883132;29;20541;-76
2023/10/20 11:46:55;;;;;;;0.10;0.10;;;17.00;85.70;;;;;;4878376;29;20072;-77
2023/10/20 11:49:25;;;;;;;0.05;0.05;;;17.10;85.60;;;;;;4864038;29;20048;-76
2023/10/20 11:51:51;;;;;;;0.00;0.00;;;17.10;85.70;;;;;;4871957;29;20033;-76
2023/10/20 11:54:17;;;;;;;0.00;0.00;;;17.00;85.50;;;;;;4875527;29;20037;-76
2023/10/20 11:56:43;;;;;;;0.10;0.10;;;17.00;85.30;;;;;;4864018;29;20061;-76
2023/10/20 11:59:09;;;;;;;0.00;0.00;;;17.00;85.30;;;;;;4863710;29;20402;-76
2023/10/20 12:01:36;;;;;;;0.10;0.10;;;17.20;85.40;;;;;;4871216;29;20025;-76
2023/10/20 12:04:05;;;;;;;0.10;0.10;;;17.20;85.40;;;;;;4882730;29;20025;-77
2023/10/20 12:06:31;;;;;;;0.10;0.10;;;17.30;85.10;;;;;;4877896;29;20113;-76
2023/10/20 12:08:57;;;;;;;0.10;0.10;;;17.30;84.90;;;;;;4863926;29;20042;-76
2023/10/20 12:11:22;;;;;;;0.10;0.10;;;17.20;84.70;;;;;;4864013;29;20030;-76
2023/10/20 12:13:48;;;;;;;0.10;0.10;;;17.30;85.10;;;;;;4864130;29;20142;-76
2023/10/20 12:16:19;;;;;;;0.10;0.10;;;17.20;85.20;;;;;;4868609;29;20115;-76
2023/10/20 12:18:46;;;;;;;0.00;0.00;;;17.30;85.20;;;;;;4881249;29;20128;-77
2023/10/20 12:21:13;;;;;;;0.00;0.00;;;17.30;84.90;;;;;;4882186;29;20021;-76
2023/10/20 12:23:38;;;;;;;0.00;0.00;;;17.20;84.90;;;;;;4879660;29;20096;-76
2023/10/20 12:26:04;;;;;;;0.10;0.10;;;17.10;84.60;;;;;;4880067;29;20112;-76
2023/10/20 12:28:31;;;;;;;0.05;0.05;;;17.10;85.10;;;;;;4881534;29;20039;-77
2023/10/20 12:30:57;;;;;;;0.00;0.00;;;17.10;85.10;;;;;;4880371;29;20577;-76
2023/10/20 12:33:24;;;;;;;0.10;0.10;;;17.10;85.10;;;;;;4868143;29;20116;-76
2023/10/20 12:35:55;;;;;;;0.10;0.10;;;17.20;85.10;;;;;;4862127;29;20049;-76
2023/10/20 12:38:22;;;;;;;0.00;0.00;;;17.20;85.10;;;;;;4881976;29;20025;-76
2023/10/20 12:40:49;;;;;;;0.00;0.00;;;17.30;84.50;;;;;;4872364;29;20022;-76
2023/10/20 12:43:15;;;;;;;0.10;0.10;;;17.20;84.40;;;;;;4879694;29;20447;-76
2023/10/20 12:45:41;;;;;;;0.10;0.10;;;17.30;84.80;;;;;;4861922;29;20025;-76
2023/10/20 12:48:07;;;;;;;0.03;0.03;;;17.20;84.30;;;;;;4850860;29;20053;-75
2023/10/20 12:50:33;;;;;;;0.10;0.10;;;17.20;84.20;;;;;;4878974;29;20073;-76
2023/10/20 12:52:59;;;;;;;0.00;0.00;;;17.20;84.50;;;;;;4866573;29;20041;-76
2023/10/20 12:55:26;;;;;;;0.00;0.00;;;17.30;84.30;;;;;;4850365;29;20041;-76
2023/10/20 12:57:53;;;;;;;0.00;0.00;;;17.30;84.40;;;;;;4871407;29;20037;-76
2023/10/20 13:00:20;;;;;;;0.00;0.00;;;17.30;83.90;;;;;;4865780;29;20029;-76
2023/10/20 13:02:49;;;;;;;0.00;0.00;;;17.20;84.50;;;;;;4868520;29;20085;-76
2023/10/20 13:05:16;;;;;;;0.00;0.00;;;17.20;84.50;;;;;;4859986;29;20029;-76
2023/10/20 13:07:42;;;;;;;0.00;0.00;;;17.30;84.30;;;;;;4875592;29;20057;-76
2023/10/20 13:10:08;;;;;;;0.00;0.00;;;17.30;83.80;;;;;;4885344;29;20451;-76
2023/10/20 13:12:33;;;;;;;0.00;0.00;;;17.30;83.90;;;;;;4883730;29;20037;-76
2023/10/20 13:14:59;;;;;;;0.03;0.03;;;17.30;84.00;;;;;;4879587;29;20033;-76
2023/10/20 13:17:26;;;;;;;0.05;0.05;;;17.30;83.80;;;;;;4865960;29;20743;-76
2023/10/20 13:19:52;;;;;;;0.00;0.00;;;17.30;83.80;;;;;;4866377;29;20085;-76
2023/10/20 13:22:18;;;;;;;0.00;0.00;;;17.30;84.00;;;;;;4862519;29;20029;-76
2023/10/20 13:24:44;;;;;;;0.10;0.10;;;17.40;83.90;;;;;;4867889;29;20032;-76
2023/10/20 13:27:12;;;;;;;0.00;0.00;;;17.40;84.10;;;;;;4883733;29;20785;-76
2023/10/20 13:29:38;;;;;;;0.00;0.00;;;17.30;84.40;;;;;;4884808;29;20036;-76
2023/10/20 13:32:04;;;;;;;0.00;0.00;;;17.30;83.90;;;;;;4884378;29;20049;-76
2023/10/20 13:34:30;;;;;;;0.10;0.10;;;17.30;84.20;;;;;;4883520;29;20044;-76
2023/10/20 13:36:56;;;;;;;0.00;0.00;;;17.30;83.90;;;;;;4882342;29;20040;-76
2023/10/20 13:39:23;;;;;;;0.00;0.00;;;17.30;84.10;;;;;;4868017;29;20037;-77
2023/10/20 13:41:49;;;;;;;0.00;0.00;;;17.30;84.10;;;;;;4882158;29;20056;-76
2023/10/20 13:44:15;;;;;;;0.03;0.03;;;17.30;84.10;;;;;;4883636;29;20029;-76
2023/10/20 13:46:41;;;;;;;0.10;0.10;;;17.30;84.30;;;;;;4882235;29;20021;-76
2023/10/20 13:49:07;;;;;;;0.10;0.10;;;17.30;84.10;;;;;;4884142;29;20447;-76
2023/10/20 13:51:33;;;;;;;0.00;0.00;;;17.40;84.20;;;;;;4884473;29;20044;-77
2023/10/20 13:53:59;;;;;;;0.00;0.00;;;17.40;83.90;;;;;;4883148;29;20025;-76
2023/10/20 13:56:26;;;;;;;0.00;0.00;;;17.50;84.00;;;;;;4884254;29;20029;-77
2023/10/20 13:58:52;;;;;;;0.10;0.10;;;17.60;84.20;;;;;;4882248;29;20084;-77
2023/10/20 14:01:18;;;;;;;0.00;0.00;;;17.70;84.00;;;;;;4884327;29;20438;-76
2023/10/20 14:03:46;;;;;;;0.00;0.00;;;17.60;83.10;;;;;;4866369;29;20051;-76
2023/10/20 14:06:12;;;;;;;0.00;0.00;;;17.60;83.40;;;;;;4884641;29;20037;-76
2023/10/20 14:08:40;;;;;;;0.00;0.00;;;17.50;83.40;;;;;;4882198;29;20033;-77
2023/10/20 14:11:07;;;;;;;0.05;0.05;;;17.60;83.60;;;;;;4883849;29;20413;-77
2023/10/20 14:13:33;;;;;;;0.10;0.10;;;17.70;83.50;;;;;;4866670;29;20033;-77
2023/10/20 14:16:00;;;;;;;0.05;0.05;;;17.70;83.50;;;;;;4867230;29;20036;-76
2023/10/20 14:18:26;;;;;;;0.10;0.10;;;17.70;83.20;;;;;;4867229;29;20045;-77
2023/10/20 14:20:53;;;;;;;0.00;0.00;;;17.70;83.10;;;;;;4883826;29;20038;-76
2023/10/20 14:23:19;;;;;;;0.00;0.00;;;17.70;83.20;;;;;;4883170;29;20542;-76
2023/10/20 14:25:46;;;;;;;0.00;0.00;;;17.80;83.20;;;;;;4866840;29;20029;-77
2023/10/20 14:28:12;;;;;;;0.00;0.00;;;17.70;83.00;;;;;;4866512;29;20055;-77
2023/10/20 14:30:37;;;;;;;0.00;0.00;;;17.80;82.80;;;;;;4883739;29;20057;-76
2023/10/20 14:33:03;;;;;;;0.10;0.10;;;17.80;82.60;;;;;;4865245;29;20401;-77
2023/10/20 14:35:29;;;;;;;0.10;0.10;;;17.80;82.80;;;;;;4882449;29;20039;-76
2023/10/20 14:37:58;;;;;;;0.00;0.00;;;17.80;82.90;;;;;;4882315;29;20028;-76
2023/10/20 14:40:23;;;;;;;0.00;0.00;;;17.80;83.10;;;;;;4880533;29;20032;-76
2023/10/20 14:42:49;;;;;;;0.00;0.00;;;17.90;82.90;;;;;;4866435;29;20029;-77
2023/10/20 14:45:15;;;;;;;0.10;0.10;;;17.80;83.00;;;;;;4883888;29;20036;-77
2023/10/20 14:47:40;;;;;;;0.00;0.00;;;17.90;83.10;;;;;;4865260;29;20153;-77
2023/10/20 14:50:07;;;;;;;0.00;0.00;;;17.80;83.10;;;;;;4883508;29;20089;-76
2023/10/20 14:52:32;;;;;;;0.10;0.10;;;17.90;82.80;;;;;;4883663;29;20040;-77
2023/10/20 14:54:58;;;;;;;0.05;0.05;;;18.10;82.40;;;;;;4883256;29;20021;-77
2023/10/20 14:57:24;;;;;;;0.00;0.00;;;18.30;81.70;;;;;;4876742;29;20029;-77
2023/10/20 14:59:50;;;;;;;0.10;0.10;;;18.50;81.10;;;;;;4866425;29;20060;-77
2023/10/20 15:02:15;;;;;;;0.00;0.00;;;18.60;81.00;;;;;;4883468;29;20032;-77
2023/10/20 15:04:41;;;;;;;0.00;0.00;;;18.70;80.00;;;;;;4879232;29;20033;-77
2023/10/20 15:07:07;;;;;;;0.00;0.00;;;18.70;79.60;;;;;;4883361;29;20021;-77
2023/10/20 15:09:32;;;;;;;0.00;0.00;;;18.60;79.40;;;;;;4880416;29;20065;-77
2023/10/20 15:11:58;;;;;;;0.00;0.00;;;18.60;79.90;;;;;;4863830;29;20129;-77
2023/10/20 15:14:24;;;;;;;0.10;0.10;;;18.60;79.90;;;;;;4880374;29;20478;-77
2023/10/20 15:16:50;;;;;;;0.00;0.00;;;18.50;79.60;;;;;;4882425;29;20381;-77
2023/10/20 15:19:16;;;;;;;0.10;0.10;;;18.30;80.20;;;;;;4881595;29;20754;-77
2023/10/20 15:21:43;;;;;;;0.00;0.00;;;18.30;80.50;;;;;;4882711;29;20025;-77
2023/10/20 15:24:09;;;;;;;0.00;0.00;;;18.20;80.40;;;;;;4882621;29;20044;-78
2023/10/20 15:26:35;;;;;;;0.00;0.00;;;18.10;80.80;;;;;;4881188;29;20017;-77
2023/10/20 15:29:01;;;;;;;0.03;0.03;;;17.90;80.40;;;;;;4881560;29;20044;-77
2023/10/20 15:31:27;;;;;;;0.00;0.00;;;17.90;80.80;;;;;;4880718;29;20045;-77
2023/10/20 15:33:52;;;;;;;0.00;0.00;;;17.80;81.20;;;;;;4882524;29;20025;-78
2023/10/20 15:36:18;;;;;;;0.10;0.10;;;18.00;81.50;;;;;;4861427;29;20040;-77
2023/10/20 15:38:44;;;;;;;0.00;0.00;;;18.20;81.20;;;;;;4864936;29;20061;-79
2023/10/20 15:41:13;;;;;;;0.10;0.10;;;18.30;80.90;;;;;;4865870;29;20061;-78
2023/10/20 15:43:39;;;;;;;0.10;0.10;;;18.30;80.60;;;;;;4865442;29;20033;-78
2023/10/20 15:46:09;;;;;;;0.00;0.00;;;18.30;80.20;;;;;;4882110;29;20032;-78
2023/10/20 15:48:35;;;;;;;0.15;0.03;;;18.20;80.00;;;;;;4865663;29;20029;-78
2023/10/20 15:51:00;;;;;;;0.00;0.00;;;18.00;80.40;;;;;;4877615;29;20558;-78
2023/10/20 15:53:26;;;;;;;0.00;0.00;;;17.80;81.00;;;;;;4882019;29;20104;-78
2023/10/20 15:55:54;;;;;;;0.00;0.00;;;17.60;81.50;;;;;;4864783;29;20025;-77
2023/10/20 15:58:19;;;;;;;0.10;0.10;;;17.40;81.80;;;;;;4865742;29;20185;-77
2023/10/20 16:00:48;;;;;;;0.00;0.00;;;17.30;82.10;;;;;;4882398;29;20052;-77
2023/10/20 16:03:17;;;;;;;0.00;0.00;;;17.20;82.50;;;;;;4863903;29;20145;-77
2023/10/20 16:05:42;;;;;;;0.00;0.00;;;17.20;82.70;;;;;;4882016;29;20103;-77
2023/10/20 16:08:08;;;;;;;0.00;0.00;;;17.20;82.70;;;;;;4878400;29;20057;-77
2023/10/20 16:10:34;;;;;;;0.00;0.00;;;17.20;82.90;;;;;;4871186;29;20030;-78
2023/10/20 16:12:59;;;;;;;0.03;0.03;;;17.10;83.10;;;;;;4882381;29;20029;-77
2023/10/20 16:15:26;;;;;;;0.00;0.00;;;17.10;83.20;;;;;;4880574;29;20402;-76
2023/10/20 16:17:54;;;;;;;0.00;0.00;;;17.10;83.30;;;;;;4864631;29;20481;-77
2023/10/20 16:20:19;;;;;;;0.00;0.00;;;17.00;83.30;;;;;;4865343;29;20033;-76
2023/10/20 16:22:45;;;;;;;0.00;0.00;;;17.00;83.60;;;;;;4879072;29;20033;-77
2023/10/20 16:25:11;;;;;;;0.00;0.00;;;17.00;83.70;;;;;;4882469;29;20033;-77
2023/10/20 16:27:37;;;;;;;0.00;0.00;;;17.10;83.90;;;;;;4885641;29;20021;-77
2023/10/20 16:30:05;;;;;;;0.00;0.00;;;17.00;84.00;;;;;;4869389;29;20029;-76
2023/10/20 16:32:30;;;;;;;0.00;0.00;;;16.90;84.10;;;;;;4882462;29;20063;-76
2023/10/20 16:34:56;;;;;;;0.00;0.00;;;16.90;84.20;;;;;;4884604;29;20663;-76
2023/10/20 16:37:22;;;;;;;0.00;0.00;;;17.00;84.30;;;;;;4883255;29;20029;-76
2023/10/20 16:39:48;;;;;;;0.00;0.00;;;16.90;84.30;;;;;;4886743;29;20032;-76
2023/10/20 16:42:14;;;;;;;0.00;0.00;;;16.90;84.50;;;;;;4885382;29;20055;-76
2023/10/20 16:44:42;;;;;;;0.00;0.00;;;16.90;84.60;;;;;;4884456;29;20430;-76
2023/10/20 16:47:10;;;;;;;0.00;0.00;;;16.90;84.70;;;;;;4883934;29;20112;-76
2023/10/20 16:49:36;;;;;;;0.00;0.00;;;16.90;84.90;;;;;;4884610;29;20056;-76
2023/10/20 16:52:02;;;;;;;0.00;0.00;;;16.90;85.10;;;;;;4883219;29;20029;-76
2023/10/20 16:54:28;;;;;;;0.00;0.00;;;16.90;85.20;;;;;;4885166;29;20036;-76
2023/10/20 16:56:54;;;;;;;0.00;0.00;;;16.80;85.40;;;;;;4884884;29;20410;-76
2023/10/20 16:59:24;;;;;;;0.00;0.00;;;16.80;85.50;;;;;;4885427;29;20401;-76
2023/10/20 17:01:50;;;;;;;0.10;0.10;;;16.80;85.50;;;;;;4881116;29;20501;-76
2023/10/20 17:04:16;;;;;;;0.00;0.00;;;16.70;85.60;;;;;;4882395;29;20136;-76
2023/10/20 17:06:41;;;;;;;0.00;0.00;;;16.60;85.60;;;;;;4882502;29;20500;-76
2023/10/20 17:09:07;;;;;;;0.00;0.00;;;16.60;85.70;;;;;;4883340;29;20049;-76
2023/10/20 17:11:36;;;;;;;0.00;0.00;;;16.50;85.90;;;;;;4878978;29;20033;-76
2023/10/20 17:14:03;;;;;;;0.00;0.00;;;16.40;85.90;;;;;;4886286;29;20028;-76
2023/10/20 17:16:29;;;;;;;0.00;0.00;;;16.40;86.00;;;;;;4878908;29;20748;-76
2023/10/20 17:18:55;;;;;;;0.00;0.00;;;16.40;85.90;;;;;;4883230;29;20037;-76
2023/10/20 17:21:21;;;;;;;0.00;0.00;;;16.30;86.00;;;;;;4883003;29;20033;-76
2023/10/20 17:23:47;;;;;;;0.00;0.00;;;16.30;86.20;;;;;;4882782;29;20501;-79
2023/10/20 17:26:13;;;;;;;0.00;0.00;;;16.20;86.30;;;;;;4884230;29;20041;-76
2023/10/20 17:28:38;;;;;;;0.00;0.00;;;16.20;86.50;;;;;;4880388;29;20078;-79
2023/10/20 17:31:04;;;;;;;0.10;0.10;;;16.20;86.50;;;;;;4880935;29;20053;-78
2023/10/20 17:33:30;;;;;;;0.10;0.10;;;16.20;86.40;;;;;;4882695;29;20029;-78
2023/10/20 17:36:07;;;;;;;0.10;0.10;;;16.20;86.60;;;;;;4877225;29;20502;-75
2023/10/20 17:38:33;;;;;;;0.00;0.00;;;16.20;86.40;;;;;;4881091;29;20029;-78
2023/10/20 17:41:05;;;;;;;0.00;0.00;;;16.10;86.60;;;;;;4877303;29;20033;-74
2023/10/20 17:43:31;;;;;;;0.00;0.00;;;16.10;86.70;;;;;;4884710;29;20060;-75